sensor_id;sensor_type;location;lat;lon;timestamp;P1;durP1;ratioP1;P2;durP2;ratioP2
31442;SDS011;18065;55.876;9.830;2024-03-17T00:02:27;3.47;;;2.50;;
31442;SDS011;18065;55.876;9.830;2024-03-17T00:04:53;4.97;;;2.70;;
31442;SDS011;18065;55.876;9.830;2024-03-17T00:07:22;4.93;;;2.33;;
31442;SDS011;18065;55.876;9.830;2024-03-17T00:09:50;3.92;;;2.30;;
31442;SDS011;18065;55.876;9.830;2024-03-17T00:12:20;3.38;;;2.15;;
31442;SDS011;18065;55.876;9.830;2024-03-17T00:14:46;4.45;;;2.40;;
31442;SDS011;18065;55.876;9.830;2024-03-17T00:17:15;4.43;;;2.50;;
31442;SDS011;18065;55.876;9.830;2024-03-17T00:19:46;4.85;;;2.35;;
31442;SDS011;18065;55.876;9.830;2024-03-17T00:22:12;3.67;;;2.25;;
31442;SDS011;18065;55.876;9.830;2024-03-17T00:24:42;3.30;;;1.90;;
31442;SDS011;18065;55.876;9.830;2024-03-17T00:27:11;4.15;;;2.35;;
31442;SDS011;18065;55.876;9.830;2024-03-17T00:29:41;3.55;;;2.15;;
31442;SDS011;18065;55.876;9.830;2024-03-17T00:32:07;3.92;;;2.20;;
31442;SDS011;18065;55.876;9.830;2024-03-17T00:34:36;3.05;;;2.17;;
31442;SDS011;18065;55.876;9.830;2024-03-17T00:37:03;4.55;;;2.45;;
31442;SDS011;18065;55.876;9.830;2024-03-17T00:39:33;5.28;;;2.40;;
31442;SDS011;18065;55.876;9.830;2024-03-17T00:42:01;5.82;;;2.30;;
31442;SDS011;18065;55.876;9.830;2024-03-17T00:44:33;3.38;;;2.05;;
31442;SDS011;18065;55.876;9.830;2024-03-17T00:47:00;3.55;;;2.10;;
31442;SDS011;18065;55.876;9.830;2024-03-17T00:49:29;3.40;;;2.05;;
31442;SDS011;18065;55.876;9.830;2024-03-17T00:51:55;4.32;;;2.20;;
31442;SDS011;18065;55.876;9.830;2024-03-17T00:54:24;3.30;;;1.90;;
31442;SDS011;18065;55.876;9.830;2024-03-17T00:56:50;3.13;;;2.10;;
31442;SDS011;18065;55.876;9.830;2024-03-17T00:59:19;4.78;;;2.38;;
31442;SDS011;18065;55.876;9.830;2024-03-17T01:01:48;4.10;;;2.28;;
31442;SDS011;18065;55.876;9.830;2024-03-17T01:04:17;3.53;;;2.20;;
31442;SDS011;18065;55.876;9.830;2024-03-17T01:06:43;3.20;;;2.22;;
31442;SDS011;18065;55.876;9.830;2024-03-17T01:09:12;3.00;;;1.80;;
31442;SDS011;18065;55.876;9.830;2024-03-17T01:11:38;3.28;;;1.75;;
31442;SDS011;18065;55.876;9.830;2024-03-17T01:14:07;3.55;;;1.90;;
31442;SDS011;18065;55.876;9.830;2024-03-17T01:16:33;3.17;;;1.83;;
31442;SDS011;18065;55.876;9.830;2024-03-17T01:19:05;3.17;;;1.83;;
31442;SDS011;18065;55.876;9.830;2024-03-17T01:21:31;2.90;;;1.80;;
31442;SDS011;18065;55.876;9.830;2024-03-17T01:24:00;3.35;;;1.80;;
31442;SDS011;18065;55.876;9.830;2024-03-17T01:26:26;2.83;;;1.80;;
31442;SDS011;18065;55.876;9.830;2024-03-17T01:28:55;2.30;;;1.60;;
31442;SDS011;18065;55.876;9.830;2024-03-17T01:31:21;4.78;;;2.17;;
31442;SDS011;18065;55.876;9.830;2024-03-17T01:33:50;4.00;;;2.30;;
31442;SDS011;18065;55.876;9.830;2024-03-17T01:36:19;9.32;;;2.05;;
31442;SDS011;18065;55.876;9.830;2024-03-17T01:38:49;2.40;;;1.75;;
31442;SDS011;18065;55.876;9.830;2024-03-17T01:41:15;2.47;;;1.55;;
31442;SDS011;18065;55.876;9.830;2024-03-17T01:43:45;3.00;;;1.70;;
31442;SDS011;18065;55.876;9.830;2024-03-17T01:46:12;3.50;;;2.10;;
31442;SDS011;18065;55.876;9.830;2024-03-17T01:48:42;2.35;;;1.60;;
31442;SDS011;18065;55.876;9.830;2024-03-17T01:51:09;2.63;;;1.75;;
31442;SDS011;18065;55.876;9.830;2024-03-17T01:53:42;4.30;;;2.10;;
31442;SDS011;18065;55.876;9.830;2024-03-17T01:56:09;2.28;;;1.63;;
31442;SDS011;18065;55.876;9.830;2024-03-17T01:58:39;2.72;;;1.67;;
31442;SDS011;18065;55.876;9.830;2024-03-17T02:01:08;3.75;;;1.73;;
31442;SDS011;18065;55.876;9.830;2024-03-17T02:03:39;2.25;;;1.40;;
31442;SDS011;18065;55.876;9.830;2024-03-17T02:06:06;2.90;;;1.70;;
31442;SDS011;18065;55.876;9.830;2024-03-17T02:08:50;3.33;;;1.75;;
31442;SDS011;18065;55.876;9.830;2024-03-17T02:11:23;1.95;;;1.35;;
31442;SDS011;18065;55.876;9.830;2024-03-17T02:13:51;2.45;;;1.50;;
31442;SDS011;18065;55.876;9.830;2024-03-17T02:16:20;2.85;;;1.73;;
31442;SDS011;18065;55.876;9.830;2024-03-17T02:18:47;3.80;;;1.83;;
31442;SDS011;18065;55.876;9.830;2024-03-17T02:21:16;3.38;;;1.58;;
31442;SDS011;18065;55.876;9.830;2024-03-17T02:23:48;2.85;;;1.80;;
31442;SDS011;18065;55.876;9.830;2024-03-17T02:26:15;4.07;;;1.30;;
31442;SDS011;18065;55.876;9.830;2024-03-17T02:28:44;2.08;;;1.48;;
31442;SDS011;18065;55.876;9.830;2024-03-17T02:31:11;2.90;;;1.50;;
31442;SDS011;18065;55.876;9.830;2024-03-17T02:33:41;1.83;;;1.20;;
31442;SDS011;18065;55.876;9.830;2024-03-17T02:36:08;2.50;;;1.67;;
31442;SDS011;18065;55.876;9.830;2024-03-17T02:38:37;3.55;;;1.60;;
31442;SDS011;18065;55.876;9.830;2024-03-17T02:41:21;2.92;;;1.40;;
31442;SDS011;18065;55.876;9.830;2024-03-17T02:43:50;2.47;;;1.27;;
31442;SDS011;18065;55.876;9.830;2024-03-17T02:46:20;1.92;;;1.38;;
31442;SDS011;18065;55.876;9.830;2024-03-17T02:48:50;2.25;;;1.35;;
31442;SDS011;18065;55.876;9.830;2024-03-17T02:51:21;2.45;;;1.27;;
31442;SDS011;18065;55.876;9.830;2024-03-17T02:53:50;2.63;;;1.50;;
31442;SDS011;18065;55.876;9.830;2024-03-17T02:56:22;1.80;;;1.20;;
31442;SDS011;18065;55.876;9.830;2024-03-17T02:58:51;2.38;;;1.27;;
31442;SDS011;18065;55.876;9.830;2024-03-17T03:01:20;3.17;;;1.50;;
31442;SDS011;18065;55.876;9.830;2024-03-17T03:03:48;2.38;;;1.25;;
31442;SDS011;18065;55.876;9.830;2024-03-17T03:06:17;2.10;;;1.38;;
31442;SDS011;18065;55.876;9.830;2024-03-17T03:08:47;2.17;;;1.50;;
31442;SDS011;18065;55.876;9.830;2024-03-17T03:11:16;1.60;;;1.10;;
31442;SDS011;18065;55.876;9.830;2024-03-17T03:13:48;3.70;;;1.50;;
31442;SDS011;18065;55.876;9.830;2024-03-17T03:16:17;3.05;;;1.60;;
31442;SDS011;18065;55.876;9.830;2024-03-17T03:18:46;2.47;;;1.13;;
31442;SDS011;18065;55.876;9.830;2024-03-17T03:21:15;2.03;;;1.27;;
31442;SDS011;18065;55.876;9.830;2024-03-17T03:23:44;2.20;;;1.20;;
31442;SDS011;18065;55.876;9.830;2024-03-17T03:26:13;2.65;;;1.40;;
31442;SDS011;18065;55.876;9.830;2024-03-17T03:28:43;2.70;;;1.45;;
31442;SDS011;18065;55.876;9.830;2024-03-17T03:31:14;3.25;;;1.40;;
31442;SDS011;18065;55.876;9.830;2024-03-17T03:33:43;2.47;;;1.40;;
31442;SDS011;18065;55.876;9.830;2024-03-17T03:36:13;3.35;;;1.30;;
31442;SDS011;18065;55.876;9.830;2024-03-17T03:38:45;1.73;;;1.23;;
31442;SDS011;18065;55.876;9.830;2024-03-17T03:41:14;3.10;;;1.45;;
31442;SDS011;18065;55.876;9.830;2024-03-17T03:43:43;2.05;;;1.40;;
31442;SDS011;18065;55.876;9.830;2024-03-17T03:46:15;1.95;;;1.10;;
31442;SDS011;18065;55.876;9.830;2024-03-17T03:48:44;1.60;;;1.00;;
31442;SDS011;18065;55.876;9.830;2024-03-17T03:51:13;2.03;;;1.23;;
31442;SDS011;18065;55.876;9.830;2024-03-17T03:53:39;3.10;;;1.45;;
31442;SDS011;18065;55.876;9.830;2024-03-17T03:56:08;2.92;;;1.15;;
31442;SDS011;18065;55.876;9.830;2024-03-17T03:58:35;2.83;;;1.20;;
31442;SDS011;18065;55.876;9.830;2024-03-17T04:01:05;1.85;;;1.10;;
31442;SDS011;18065;55.876;9.830;2024-03-17T04:03:39;4.20;;;1.30;;
31442;SDS011;18065;55.876;9.830;2024-03-17T04:06:08;2.22;;;1.15;;
31442;SDS011;18065;55.876;9.830;2024-03-17T04:08:38;1.73;;;1.10;;
31442;SDS011;18065;55.876;9.830;2024-03-17T04:11:08;3.45;;;1.63;;
31442;SDS011;18065;55.876;9.830;2024-03-17T04:13:37;1.58;;;1.02;;
31442;SDS011;18065;55.876;9.830;2024-03-17T04:16:06;1.63;;;1.30;;
31442;SDS011;18065;55.876;9.830;2024-03-17T04:18:40;1.38;;;1.00;;
31442;SDS011;18065;55.876;9.830;2024-03-17T04:21:09;2.10;;;1.15;;
31442;SDS011;18065;55.876;9.830;2024-03-17T04:23:38;2.53;;;1.05;;
31442;SDS011;18065;55.876;9.830;2024-03-17T04:26:07;1.73;;;1.10;;
31442;SDS011;18065;55.876;9.830;2024-03-17T04:28:35;2.00;;;1.23;;
31442;SDS011;18065;55.876;9.830;2024-03-17T04:31:05;1.65;;;1.08;;
31442;SDS011;18065;55.876;9.830;2024-03-17T04:33:39;2.15;;;1.00;;
31442;SDS011;18065;55.876;9.830;2024-03-17T04:36:08;3.00;;;1.20;;
31442;SDS011;18065;55.876;9.830;2024-03-17T04:38:36;2.17;;;0.95;;
31442;SDS011;18065;55.876;9.830;2024-03-17T04:41:05;1.60;;;0.82;;
31442;SDS011;18065;55.876;9.830;2024-03-17T04:43:35;1.73;;;1.20;;
31442;SDS011;18065;55.876;9.830;2024-03-17T04:46:04;2.60;;;1.35;;
31442;SDS011;18065;55.876;9.830;2024-03-17T04:48:39;2.33;;;1.02;;
31442;SDS011;18065;55.876;9.830;2024-03-17T04:51:08;1.73;;;0.90;;
31442;SDS011;18065;55.876;9.830;2024-03-17T04:53:43;2.95;;;1.30;;
31442;SDS011;18065;55.876;9.830;2024-03-17T04:56:12;1.58;;;1.00;;
31442;SDS011;18065;55.876;9.830;2024-03-17T04:58:41;2.88;;;1.38;;
31442;SDS011;18065;55.876;9.830;2024-03-17T05:01:10;1.35;;;0.98;;
31442;SDS011;18065;55.876;9.830;2024-03-17T05:03:41;3.78;;;0.80;;
31442;SDS011;18065;55.876;9.830;2024-03-17T05:06:10;2.88;;;1.25;;
31442;SDS011;18065;55.876;9.830;2024-03-17T05:08:40;3.35;;;1.25;;
31442;SDS011;18065;55.876;9.830;2024-03-17T05:11:08;2.72;;;1.20;;
31442;SDS011;18065;55.876;9.830;2024-03-17T05:13:39;1.70;;;1.10;;
31442;SDS011;18065;55.876;9.830;2024-03-17T05:16:08;3.20;;;1.08;;
31442;SDS011;18065;55.876;9.830;2024-03-17T05:18:37;1.90;;;0.90;;
31442;SDS011;18065;55.876;9.830;2024-03-17T05:21:09;1.65;;;0.98;;
31442;SDS011;18065;55.876;9.830;2024-03-17T05:23:37;1.98;;;1.05;;
31442;SDS011;18065;55.876;9.830;2024-03-17T05:26:06;2.15;;;0.90;;
31442;SDS011;18065;55.876;9.830;2024-03-17T05:28:35;1.92;;;1.00;;
31442;SDS011;18065;55.876;9.830;2024-03-17T05:31:04;2.65;;;0.90;;
31442;SDS011;18065;55.876;9.830;2024-03-17T05:33:33;1.50;;;0.95;;
31442;SDS011;18065;55.876;9.830;2024-03-17T05:36:02;1.63;;;0.85;;
31442;SDS011;18065;55.876;9.830;2024-03-17T05:38:34;1.77;;;1.10;;
31442;SDS011;18065;55.876;9.830;2024-03-17T05:41:04;2.22;;;1.00;;
31442;SDS011;18065;55.876;9.830;2024-03-17T05:43:34;1.67;;;1.00;;
31442;SDS011;18065;55.876;9.830;2024-03-17T05:46:04;1.55;;;0.80;;
31442;SDS011;18065;55.876;9.830;2024-03-17T05:48:34;2.75;;;1.05;;
31442;SDS011;18065;55.876;9.830;2024-03-17T05:51:04;1.83;;;1.05;;
31442;SDS011;18065;55.876;9.830;2024-03-17T05:53:36;1.63;;;1.05;;
31442;SDS011;18065;55.876;9.830;2024-03-17T05:56:06;1.35;;;0.82;;
31442;SDS011;18065;55.876;9.830;2024-03-17T05:58:36;1.35;;;0.77;;
31442;SDS011;18065;55.876;9.830;2024-03-17T06:01:05;2.45;;;1.00;;
31442;SDS011;18065;55.876;9.830;2024-03-17T06:03:36;1.77;;;1.08;;
31442;SDS011;18065;55.876;9.830;2024-03-17T06:06:07;1.52;;;0.80;;
31442;SDS011;18065;55.876;9.830;2024-03-17T06:08:39;1.48;;;0.70;;
31442;SDS011;18065;55.876;9.830;2024-03-17T06:11:08;3.00;;;1.17;;
31442;SDS011;18065;55.876;9.830;2024-03-17T06:13:38;1.25;;;0.85;;
31442;SDS011;18065;55.876;9.830;2024-03-17T06:16:07;1.75;;;0.82;;
31442;SDS011;18065;55.876;9.830;2024-03-17T06:18:36;1.77;;;1.10;;
31442;SDS011;18065;55.876;9.830;2024-03-17T06:21:05;1.73;;;0.90;;
31442;SDS011;18065;55.876;9.830;2024-03-17T06:23:34;1.90;;;0.80;;
31442;SDS011;18065;55.876;9.830;2024-03-17T06:26:06;2.85;;;1.13;;
31442;SDS011;18065;55.876;9.830;2024-03-17T06:28:35;3.55;;;0.93;;
31442;SDS011;18065;55.876;9.830;2024-03-17T06:31:04;2.38;;;0.80;;
31442;SDS011;18065;55.876;9.830;2024-03-17T06:33:35;1.05;;;0.73;;
31442;SDS011;18065;55.876;9.830;2024-03-17T06:36:04;3.22;;;0.90;;
31442;SDS011;18065;55.876;9.830;2024-03-17T06:38:34;1.45;;;0.80;;
31442;SDS011;18065;55.876;9.830;2024-03-17T06:41:06;2.28;;;1.05;;
31442;SDS011;18065;55.876;9.830;2024-03-17T06:43:35;2.45;;;1.00;;
31442;SDS011;18065;55.876;9.830;2024-03-17T06:46:04;1.42;;;0.80;;
31442;SDS011;18065;55.876;9.830;2024-03-17T06:48:33;1.80;;;0.98;;
31442;SDS011;18065;55.876;9.830;2024-03-17T06:51:02;2.28;;;1.00;;
31442;SDS011;18065;55.876;9.830;2024-03-17T06:53:31;2.13;;;0.80;;
31442;SDS011;18065;55.876;9.830;2024-03-17T06:56:00;2.55;;;0.82;;
31442;SDS011;18065;55.876;9.830;2024-03-17T06:58:32;3.85;;;0.98;;
31442;SDS011;18065;55.876;9.830;2024-03-17T07:01:00;1.73;;;0.98;;
31442;SDS011;18065;55.876;9.830;2024-03-17T07:03:30;2.13;;;1.00;;
31442;SDS011;18065;55.876;9.830;2024-03-17T07:06:00;3.25;;;1.10;;
31442;SDS011;18065;55.876;9.830;2024-03-17T07:08:33;1.38;;;0.90;;
31442;SDS011;18065;55.876;9.830;2024-03-17T07:11:02;3.95;;;1.17;;
31442;SDS011;18065;55.876;9.830;2024-03-17T07:13:36;1.33;;;0.55;;
31442;SDS011;18065;55.876;9.830;2024-03-17T07:16:07;3.45;;;1.40;;
31442;SDS011;18065;55.876;9.830;2024-03-17T07:18:36;1.50;;;0.80;;
31442;SDS011;18065;55.876;9.830;2024-03-17T07:21:05;2.10;;;0.73;;
31442;SDS011;18065;55.876;9.830;2024-03-17T07:23:35;1.35;;;0.80;;
31442;SDS011;18065;55.876;9.830;2024-03-17T07:26:04;1.80;;;0.90;;
31442;SDS011;18065;55.876;9.830;2024-03-17T07:28:37;2.20;;;1.27;;
31442;SDS011;18065;55.876;9.830;2024-03-17T07:31:08;3.38;;;0.93;;
31442;SDS011;18065;55.876;9.830;2024-03-17T07:33:37;2.60;;;0.85;;
31442;SDS011;18065;55.876;9.830;2024-03-17T07:36:07;1.67;;;0.60;;
31442;SDS011;18065;55.876;9.830;2024-03-17T07:38:36;1.85;;;0.82;;
31442;SDS011;18065;55.876;9.830;2024-03-17T07:41:06;2.58;;;0.77;;
31442;SDS011;18065;55.876;9.830;2024-03-17T07:43:38;1.13;;;0.60;;
31442;SDS011;18065;55.876;9.830;2024-03-17T07:46:08;2.63;;;0.90;;
31442;SDS011;18065;55.876;9.830;2024-03-17T07:48:39;1.65;;;1.00;;
31442;SDS011;18065;55.876;9.830;2024-03-17T07:51:09;2.63;;;0.90;;
31442;SDS011;18065;55.876;9.830;2024-03-17T07:53:39;1.75;;;0.93;;
31442;SDS011;18065;55.876;9.830;2024-03-17T07:56:10;1.10;;;0.75;;
31442;SDS011;18065;55.876;9.830;2024-03-17T07:58:43;3.28;;;0.90;;
31442;SDS011;18065;55.876;9.830;2024-03-17T08:01:13;2.47;;;0.90;;
31442;SDS011;18065;55.876;9.830;2024-03-17T08:03:44;1.75;;;0.88;;
31442;SDS011;18065;55.876;9.830;2024-03-17T08:06:14;1.00;;;0.57;;
31442;SDS011;18065;55.876;9.830;2024-03-17T08:08:43;2.20;;;0.90;;
31442;SDS011;18065;55.876;9.830;2024-03-17T08:11:12;1.60;;;0.75;;
31442;SDS011;18065;55.876;9.830;2024-03-17T08:13:43;2.45;;;0.77;;
31442;SDS011;18065;55.876;9.830;2024-03-17T08:16:12;1.73;;;0.80;;
31442;SDS011;18065;55.876;9.830;2024-03-17T08:18:42;1.08;;;0.50;;
31442;SDS011;18065;55.876;9.830;2024-03-17T08:21:11;1.02;;;0.52;;
31442;SDS011;18065;55.876;9.830;2024-03-17T08:23:37;1.70;;;0.70;;
31442;SDS011;18065;55.876;9.830;2024-03-17T08:26:08;1.60;;;0.80;;
31442;SDS011;18065;55.876;9.830;2024-03-17T08:28:37;1.42;;;0.50;;
31442;SDS011;18065;55.876;9.830;2024-03-17T08:31:08;1.45;;;0.60;;
31442;SDS011;18065;55.876;9.830;2024-03-17T08:33:38;1.38;;;0.60;;
31442;SDS011;18065;55.876;9.830;2024-03-17T08:36:07;1.38;;;0.80;;
31442;SDS011;18065;55.876;9.830;2024-03-17T08:38:37;1.30;;;0.63;;
31442;SDS011;18065;55.876;9.830;2024-03-17T08:41:06;1.38;;;0.60;;
31442;SDS011;18065;55.876;9.830;2024-03-17T08:43:36;2.05;;;0.63;;
31442;SDS011;18065;55.876;9.830;2024-03-17T08:46:10;1.42;;;0.90;;
31442;SDS011;18065;55.876;9.830;2024-03-17T08:48:40;3.92;;;0.60;;
31442;SDS011;18065;55.876;9.830;2024-03-17T08:51:09;2.40;;;0.70;;
31442;SDS011;18065;55.876;9.830;2024-03-17T08:53:38;2.05;;;0.90;;
31442;SDS011;18065;55.876;9.830;2024-03-17T08:56:07;1.05;;;0.90;;
31442;SDS011;18065;55.876;9.830;2024-03-17T08:58:36;1.42;;;0.88;;
31442;SDS011;18065;55.876;9.830;2024-03-17T09:01:05;1.60;;;1.15;;
31442;SDS011;18065;55.876;9.830;2024-03-17T09:03:37;1.13;;;0.85;;
31442;SDS011;18065;55.876;9.830;2024-03-17T09:06:12;1.98;;;1.45;;
31442;SDS011;18065;55.876;9.830;2024-03-17T09:08:45;2.45;;;1.30;;
31442;SDS011;18065;55.876;9.830;2024-03-17T09:11:14;3.22;;;1.30;;
31442;SDS011;18065;55.876;9.830;2024-03-17T09:13:43;1.98;;;1.33;;
31442;SDS011;18065;55.876;9.830;2024-03-17T09:16:11;2.63;;;1.38;;
31442;SDS011;18065;55.876;9.830;2024-03-17T09:18:46;2.28;;;1.35;;
31442;SDS011;18065;55.876;9.830;2024-03-17T09:21:15;1.35;;;1.25;;
31442;SDS011;18065;55.876;9.830;2024-03-17T09:23:44;2.33;;;1.60;;
31442;SDS011;18065;55.876;9.830;2024-03-17T09:26:13;2.05;;;1.80;;
31442;SDS011;18065;55.876;9.830;2024-03-17T09:28:43;2.67;;;1.90;;
31442;SDS011;18065;55.876;9.830;2024-03-17T09:31:12;3.00;;;1.80;;
31442;SDS011;18065;55.876;9.830;2024-03-17T09:33:40;2.30;;;1.60;;
31442;SDS011;18065;55.876;9.830;2024-03-17T09:36:12;2.22;;;1.67;;
31442;SDS011;18065;55.876;9.830;2024-03-17T09:38:41;2.70;;;2.00;;
31442;SDS011;18065;55.876;9.830;2024-03-17T09:41:14;2.53;;;1.95;;
31442;SDS011;18065;55.876;9.830;2024-03-17T09:43:50;2.10;;;1.77;;
31442;SDS011;18065;55.876;9.830;2024-03-17T09:46:22;2.47;;;1.80;;
31442;SDS011;18065;55.876;9.830;2024-03-17T09:48:52;3.35;;;1.77;;
31442;SDS011;18065;55.876;9.830;2024-03-17T09:51:25;2.83;;;1.90;;
31442;SDS011;18065;55.876;9.830;2024-03-17T09:53:55;2.78;;;1.70;;
31442;SDS011;18065;55.876;9.830;2024-03-17T09:56:24;3.35;;;1.73;;
31442;SDS011;18065;55.876;9.830;2024-03-17T09:58:53;2.03;;;1.70;;
31442;SDS011;18065;55.876;9.830;2024-03-17T10:01:22;2.92;;;1.98;;
31442;SDS011;18065;55.876;9.830;2024-03-17T10:03:52;2.70;;;2.00;;
31442;SDS011;18065;55.876;9.830;2024-03-17T10:06:26;3.08;;;2.50;;
31442;SDS011;18065;55.876;9.830;2024-03-17T10:08:56;3.88;;;2.40;;
31442;SDS011;18065;55.876;9.830;2024-03-17T10:11:32;2.28;;;2.03;;
31442;SDS011;18065;55.876;9.830;2024-03-17T10:14:02;2.85;;;2.42;;
31442;SDS011;18065;55.876;9.830;2024-03-17T10:16:33;2.80;;;2.50;;
31442;SDS011;18065;55.876;9.830;2024-03-17T10:19:07;3.05;;;2.72;;
31442;SDS011;18065;55.876;9.830;2024-03-17T10:21:40;3.03;;;2.72;;
31442;SDS011;18065;55.876;9.830;2024-03-17T10:24:10;3.55;;;2.97;;
31442;SDS011;18065;55.876;9.830;2024-03-17T10:26:43;5.78;;;2.70;;
31442;SDS011;18065;55.876;9.830;2024-03-17T10:32:02;4.63;;;2.78;;
31442;SDS011;18065;55.876;9.830;2024-03-17T10:34:32;3.80;;;2.63;;
31442;SDS011;18065;55.876;9.830;2024-03-17T10:37:09;3.00;;;2.40;;
31442;SDS011;18065;55.876;9.830;2024-03-17T10:39:39;4.68;;;2.90;;
31442;SDS011;18065;55.876;9.830;2024-03-17T10:42:09;3.58;;;2.47;;
31442;SDS011;18065;55.876;9.830;2024-03-17T10:44:40;2.30;;;2.10;;
31442;SDS011;18065;55.876;9.830;2024-03-17T10:47:14;3.60;;;2.30;;
31442;SDS011;18065;55.876;9.830;2024-03-17T10:49:50;2.67;;;2.33;;
31442;SDS011;18065;55.876;9.830;2024-03-17T10:52:23;2.92;;;2.40;;
31442;SDS011;18065;55.876;9.830;2024-03-17T10:54:54;3.03;;;2.40;;
31442;SDS011;18065;55.876;9.830;2024-03-17T10:57:27;2.58;;;2.28;;
31442;SDS011;18065;55.876;9.830;2024-03-17T11:00:01;3.20;;;2.00;;
31442;SDS011;18065;55.876;9.830;2024-03-17T11:02:33;3.33;;;2.47;;
31442;SDS011;18065;55.876;9.830;2024-03-17T11:05:04;3.28;;;2.00;;
31442;SDS011;18065;55.876;9.830;2024-03-17T11:07:37;4.80;;;2.08;;
31442;SDS011;18065;55.876;9.830;2024-03-17T11:10:11;2.05;;;1.85;;
31442;SDS011;18065;55.876;9.830;2024-03-17T11:21:00;3.33;;;2.20;;
31442;SDS011;18065;55.876;9.830;2024-03-17T11:23:36;3.10;;;2.00;;
31442;SDS011;18065;55.876;9.830;2024-03-17T11:26:06;2.85;;;2.03;;
31442;SDS011;18065;55.876;9.830;2024-03-17T11:28:45;4.28;;;2.05;;
31442;SDS011;18065;55.876;9.830;2024-03-17T11:34:06;3.00;;;2.20;;
31442;SDS011;18065;55.876;9.830;2024-03-17T11:36:53;4.00;;;2.00;;
31442;SDS011;18065;55.876;9.830;2024-03-17T11:42:18;4.55;;;2.35;;
31442;SDS011;18065;55.876;9.830;2024-03-17T11:44:57;2.05;;;1.60;;
31442;SDS011;18065;55.876;9.830;2024-03-17T11:47:34;2.45;;;1.92;;
31442;SDS011;18065;55.876;9.830;2024-03-17T11:50:08;4.10;;;1.98;;
31442;SDS011;18065;55.876;9.830;2024-03-17T11:52:38;3.10;;;2.17;;
31442;SDS011;18065;55.876;9.830;2024-03-17T11:55:18;5.40;;;2.15;;
31442;SDS011;18065;55.876;9.830;2024-03-17T11:57:44;4.18;;;2.15;;
31442;SDS011;18065;55.876;9.830;2024-03-17T12:00:18;4.60;;;2.53;;
31442;SDS011;18065;55.876;9.830;2024-03-17T12:02:48;4.10;;;1.85;;
31442;SDS011;18065;55.876;9.830;2024-03-17T12:05:17;3.63;;;2.10;;
31442;SDS011;18065;55.876;9.830;2024-03-17T12:07:44;5.03;;;2.08;;
31442;SDS011;18065;55.876;9.830;2024-03-17T12:10:13;4.50;;;2.15;;
31442;SDS011;18065;55.876;9.830;2024-03-17T12:12:46;2.40;;;1.80;;
31442;SDS011;18065;55.876;9.830;2024-03-17T12:15:18;6.38;;;2.30;;
31442;SDS011;18065;55.876;9.830;2024-03-17T12:17:45;3.47;;;1.98;;
31442;SDS011;18065;55.876;9.830;2024-03-17T12:20:17;4.38;;;1.77;;
31442;SDS011;18065;55.876;9.830;2024-03-17T12:22:44;4.85;;;1.90;;
31442;SDS011;18065;55.876;9.830;2024-03-17T12:25:16;4.13;;;1.80;;
31442;SDS011;18065;55.876;9.830;2024-03-17T12:27:47;6.90;;;2.65;;
31442;SDS011;18065;55.876;9.830;2024-03-17T12:30:16;5.28;;;1.90;;
31442;SDS011;18065;55.876;9.830;2024-03-17T12:32:44;3.38;;;2.00;;
31442;SDS011;18065;55.876;9.830;2024-03-17T12:35:15;5.30;;;1.80;;
31442;SDS011;18065;55.876;9.830;2024-03-17T12:37:43;3.80;;;2.22;;
31442;SDS011;18065;55.876;9.830;2024-03-17T12:40:17;2.55;;;1.65;;
31442;SDS011;18065;55.876;9.830;2024-03-17T12:42:50;3.92;;;2.05;;
31442;SDS011;18065;55.876;9.830;2024-03-17T12:45:19;5.50;;;2.03;;
31442;SDS011;18065;55.876;9.830;2024-03-17T12:47:47;3.42;;;2.00;;
31442;SDS011;18065;55.876;9.830;2024-03-17T12:50:17;5.97;;;1.90;;
31442;SDS011;18065;55.876;9.830;2024-03-17T12:52:51;4.72;;;2.00;;
31442;SDS011;18065;55.876;9.830;2024-03-17T12:55:21;4.95;;;2.08;;
31442;SDS011;18065;55.876;9.830;2024-03-17T12:58:08;4.60;;;1.88;;
31442;SDS011;18065;55.876;9.830;2024-03-17T13:00:56;3.95;;;1.88;;
31442;SDS011;18065;55.876;9.830;2024-03-17T13:03:26;4.15;;;2.00;;
31442;SDS011;18065;55.876;9.830;2024-03-17T13:05:58;2.70;;;1.75;;
31442;SDS011;18065;55.876;9.830;2024-03-17T13:08:28;3.92;;;1.55;;
31442;SDS011;18065;55.876;9.830;2024-03-17T13:10:57;3.28;;;1.65;;
31442;SDS011;18065;55.876;9.830;2024-03-17T13:13:28;3.75;;;1.95;;
31442;SDS011;18065;55.876;9.830;2024-03-17T13:15:57;2.72;;;1.58;;
31442;SDS011;18065;55.876;9.830;2024-03-17T13:18:27;3.63;;;1.55;;
31442;SDS011;18065;55.876;9.830;2024-03-17T13:20:55;4.07;;;1.70;;
31442;SDS011;18065;55.876;9.830;2024-03-17T13:23:26;4.05;;;1.90;;
31442;SDS011;18065;55.876;9.830;2024-03-17T13:25:55;3.38;;;1.85;;
31442;SDS011;18065;55.876;9.830;2024-03-17T13:28:24;3.38;;;1.50;;
31442;SDS011;18065;55.876;9.830;2024-03-17T13:30:55;3.80;;;1.70;;
31442;SDS011;18065;55.876;9.830;2024-03-17T13:33:24;2.35;;;1.10;;
31442;SDS011;18065;55.876;9.830;2024-03-17T13:35:54;2.63;;;1.30;;
31442;SDS011;18065;55.876;9.830;2024-03-17T13:38:23;5.00;;;1.65;;
31442;SDS011;18065;55.876;9.830;2024-03-17T13:40:53;2.90;;;1.58;;
31442;SDS011;18065;55.876;9.830;2024-03-17T13:43:22;3.53;;;1.60;;
31442;SDS011;18065;55.876;9.830;2024-03-17T13:45:51;4.10;;;1.70;;
31442;SDS011;18065;55.876;9.830;2024-03-17T13:48:23;3.13;;;1.33;;
31442;SDS011;18065;55.876;9.830;2024-03-17T13:50:51;3.08;;;1.75;;
31442;SDS011;18065;55.876;9.830;2024-03-17T13:53:20;2.72;;;1.48;;
31442;SDS011;18065;55.876;9.830;2024-03-17T13:55:49;2.03;;;1.48;;
31442;SDS011;18065;55.876;9.830;2024-03-17T13:58:18;2.75;;;1.50;;
31442;SDS011;18065;55.876;9.830;2024-03-17T14:00:47;2.08;;;1.33;;
31442;SDS011;18065;55.876;9.830;2024-03-17T14:03:16;3.40;;;1.65;;
31442;SDS011;18065;55.876;9.830;2024-03-17T14:05:48;2.42;;;1.48;;
31442;SDS011;18065;55.876;9.830;2024-03-17T14:08:16;4.15;;;1.35;;
31442;SDS011;18065;55.876;9.830;2024-03-17T14:10:45;3.30;;;1.40;;
31442;SDS011;18065;55.876;9.830;2024-03-17T14:13:14;2.17;;;1.40;;
31442;SDS011;18065;55.876;9.830;2024-03-17T14:15:43;2.13;;;1.33;;
31442;SDS011;18065;55.876;9.830;2024-03-17T14:18:12;2.67;;;1.45;;
31442;SDS011;18065;55.876;9.830;2024-03-17T14:20:40;3.28;;;1.50;;
31442;SDS011;18065;55.876;9.830;2024-03-17T14:23:12;1.80;;;1.30;;
31442;SDS011;18065;55.876;9.830;2024-03-17T14:25:41;2.58;;;1.38;;
31442;SDS011;18065;55.876;9.830;2024-03-17T14:28:10;3.05;;;1.55;;
31442;SDS011;18065;55.876;9.830;2024-03-17T14:30:39;2.60;;;1.35;;
31442;SDS011;18065;55.876;9.830;2024-03-17T14:33:07;3.90;;;1.48;;
31442;SDS011;18065;55.876;9.830;2024-03-17T14:35:36;2.00;;;1.30;;
31442;SDS011;18065;55.876;9.830;2024-03-17T14:38:06;3.75;;;1.67;;
31442;SDS011;18065;55.876;9.830;2024-03-17T14:40:38;3.97;;;1.60;;
31442;SDS011;18065;55.876;9.830;2024-03-17T14:43:06;3.33;;;1.60;;
31442;SDS011;18065;55.876;9.830;2024-03-17T14:45:36;2.13;;;1.25;;
31442;SDS011;18065;55.876;9.830;2024-03-17T14:48:05;2.85;;;1.50;;
31442;SDS011;18065;55.876;9.830;2024-03-17T14:50:35;5.20;;;1.77;;
31442;SDS011;18065;55.876;9.830;2024-03-17T14:53:04;2.95;;;1.70;;
31442;SDS011;18065;55.876;9.830;2024-03-17T14:55:33;2.30;;;1.48;;
31442;SDS011;18065;55.876;9.830;2024-03-17T14:58:04;2.85;;;1.23;;
31442;SDS011;18065;55.876;9.830;2024-03-17T15:00:33;3.28;;;1.33;;
31442;SDS011;18065;55.876;9.830;2024-03-17T15:03:03;2.85;;;1.20;;
31442;SDS011;18065;55.876;9.830;2024-03-17T15:05:34;2.50;;;1.02;;
31442;SDS011;18065;55.876;9.830;2024-03-17T15:08:03;2.35;;;1.20;;
31442;SDS011;18065;55.876;9.830;2024-03-17T15:10:35;2.08;;;1.10;;
31442;SDS011;18065;55.876;9.830;2024-03-17T15:13:06;2.13;;;1.05;;
31442;SDS011;18065;55.876;9.830;2024-03-17T15:15:35;1.73;;;1.00;;
31442;SDS011;18065;55.876;9.830;2024-03-17T15:18:05;2.30;;;1.42;;
31442;SDS011;18065;55.876;9.830;2024-03-17T15:20:34;2.55;;;1.38;;
31442;SDS011;18065;55.876;9.830;2024-03-17T15:23:03;4.68;;;2.10;;